Time;durP1;ratioP1;P1;durP2;ratioP2;P2;SDS_P1;SDS_P2;PMS_P1;PMS_P2;Temp;Humidity;BMP_temperature;BMP_pressure;BME280_temperature;BME280_humidity;BME280_pressure;Samples;Min_cycle;Max_cycle;Signal;HPM_P1;HPM_P2
2022/04/21 00:00:04;;;;;;;12.43;6.25;;;7.10;99.90;;;;;;5073314;28;20051;-81
2022/04/21 00:02:30;;;;;;;13.60;6.07;;;7.30;99.90;;;;;;5041576;28;20048;-81
2022/04/21 00:04:55;;;;;;;13.05;6.40;;;7.10;99.90;;;;;;5076096;28;20032;-81
2022/04/21 00:07:22;;;;;;;13.80;6.20;;;7.10;99.90;;;;;;5072171;28;20032;-81
2022/04/21 00:09:51;;;;;;;13.10;6.57;;;8.20;99.90;;;;;;5065507;28;20039;-81
2022/04/21 00:12:17;;;;;;;11.88;5.90;;;7.10;99.90;;;;;;5058413;28;20048;-81
2022/04/21 00:14:43;;;;;;;14.02;6.93;;;7.80;99.90;;;;;;5048238;28;20573;-81
2022/04/21 00:17:09;;;;;;;12.40;6.47;;;7.10;99.90;;;;;;5074489;28;20163;-81
2022/04/21 00:19:35;;;;;;;14.10;6.72;;;7.10;99.90;;;;;;5055207;28;20178;-81
2022/04/21 00:24:45;;;;;;;13.68;6.78;;;7.10;99.90;;;;;;5073999;28;20878;-82
2022/04/21 00:27:11;;;;;;;12.48;6.40;;;7.10;99.90;;;;;;5046947;28;20031;-82
2022/04/21 00:29:38;;;;;;;13.27;6.80;;;7.50;99.90;;;;;;5043485;28;20039;-81
2022/04/21 00:32:04;;;;;;;13.00;7.15;;;7.10;99.90;;;;;;5047662;28;20051;-82
2022/04/21 00:34:31;;;;;;;13.52;6.53;;;7.10;99.90;;;;;;5055933;28;20051;-81
2022/04/21 00:36:57;;;;;;;13.75;7.00;;;7.10;99.90;;;;;;5046065;28;20120;-81
2022/04/21 00:39:22;;;;;;;14.80;7.00;;;8.10;99.90;;;;;;5046377;28;20067;-82
2022/04/21 00:41:48;;;;;;;12.80;6.15;;;7.10;99.90;;;;;;5068248;28;20067;-81
2022/04/21 00:44:14;;;;;;;14.02;7.22;;;7.10;99.90;;;;;;5060008;28;20147;-81
2022/04/21 00:46:41;;;;;;;13.23;7.20;;;7.80;99.90;;;;;;5063132;28;20464;-81
2022/04/21 00:49:08;;;;;;;15.57;7.78;;;7.00;99.90;;;;;;5061752;28;20539;-81
2022/04/21 00:51:35;;;;;;;13.88;7.53;;;7.20;99.90;;;;;;5051421;28;20040;-81
2022/04/21 00:54:00;;;;;;;14.90;7.88;;;7.00;99.90;;;;;;5059830;28;20033;-81
2022/04/21 00:56:26;;;;;;;13.77;7.60;;;7.00;99.90;;;;;;5028762;28;20463;-81
2022/04/21 00:58:53;;;;;;;14.15;7.65;;;7.70;99.90;;;;;;5062011;28;20059;-81
2022/04/21 01:04:05;;;;;;;13.90;7.05;;;7.50;99.90;;;;;;5065415;28;20055;-81
2022/04/21 01:06:30;;;;;;;14.98;8.57;;;7.00;99.90;;;;;;5044615;28;20189;-81
2022/04/21 01:08:56;;;;;;;16.55;7.97;;;7.10;99.90;;;;;;5035918;28;20048;-81
2022/04/21 01:11:22;;;;;;;15.65;8.43;;;7.10;99.90;;;;;;5047648;28;20079;-81
2022/04/21 01:13:48;;;;;;;14.82;8.07;;;7.00;99.90;;;;;;5068025;28;20445;-82
2022/04/21 01:16:14;;;;;;;14.77;7.60;;;7.00;99.90;;;;;;5044703;28;20511;-81
2022/04/21 01:18:41;;;;;;;14.43;8.38;;;6.90;99.90;;;;;;5077713;28;20047;-81
2022/04/21 01:21:07;;;;;;;17.17;9.20;;;6.90;99.90;;;;;;5060705;28;21477;-81
2022/04/21 01:23:32;;;;;;;14.80;8.77;;;7.90;99.90;;;;;;5057208;28;20060;-81
2022/04/21 01:26:01;;;;;;;16.27;9.02;;;6.90;99.90;;;;;;5063479;28;20050;-81
2022/04/21 01:28:27;;;;;;;16.77;8.88;;;6.90;99.90;;;;;;5059674;28;20438;-81
2022/04/21 01:30:57;;;;;;;17.23;8.93;;;6.90;99.90;;;;;;5058456;28;20465;-81
2022/04/21 01:33:24;;;;;;;18.70;10.35;;;6.80;99.90;;;;;;5052104;28;20047;-81
2022/04/21 01:35:51;;;;;;;17.70;9.18;;;7.60;99.90;;;;;;5065933;28;20044;-81
2022/04/21 01:41:14;;;;;;;16.67;9.05;;;6.80;99.90;;;;;;5059146;28;20393;-82
2022/04/21 01:43:44;;;;;;;17.27;10.25;;;6.70;99.90;;;;;;5039406;28;20043;-81
2022/04/21 01:46:10;;;;;;;17.30;10.07;;;6.70;99.90;;;;;;5073093;28;20039;-81
2022/04/21 01:48:36;;;;;;;17.80;9.93;;;6.70;99.90;;;;;;5055659;28;20032;-81
2022/04/21 01:51:02;;;;;;;17.50;10.68;;;6.70;99.90;;;;;;5026211;28;20102;-81
2022/04/21 01:53:28;;;;;;;17.15;10.25;;;6.70;99.90;;;;;;5060818;28;20943;-81
2022/04/21 01:55:54;;;;;;;16.70;10.30;;;6.70;99.90;;;;;;5065750;28;20128;-81
2022/04/21 01:58:21;;;;;;;19.38;11.02;;;6.90;99.90;;;;;;5056860;28;20033;-82
2022/04/21 02:00:46;;;;;;;18.55;10.60;;;6.70;99.90;;;;;;5063042;28;20089;-81
2022/04/21 02:03:12;;;;;;;17.02;10.60;;;6.70;99.90;;;;;;5046578;28;20059;-81
2022/04/21 02:05:38;;;;;;;18.05;10.45;;;6.70;99.90;;;;;;5066466;28;20115;-81
2022/04/21 02:08:04;;;;;;;18.20;10.57;;;6.70;99.90;;;;;;5058104;28;20060;-81
2022/04/21 02:10:30;;;;;;;19.73;10.85;;;6.60;99.90;;;;;;5044857;28;20506;-81
2022/04/21 02:12:57;;;;;;;19.63;10.75;;;6.70;99.90;;;;;;5060873;28;20036;-82
2022/04/21 02:15:23;;;;;;;16.52;9.73;;;6.70;99.90;;;;;;5076782;28;20085;-81
2022/04/21 02:17:49;;;;;;;17.20;10.18;;;6.70;99.90;;;;;;5076598;28;20204;-81
2022/04/21 02:20:16;;;;;;;17.27;10.18;;;6.70;99.90;;;;;;5052849;28;20117;-81
2022/04/21 02:22:43;;;;;;;18.35;10.18;;;6.70;99.90;;;;;;5042199;28;20074;-81
2022/04/21 02:25:10;;;;;;;16.85;10.18;;;7.50;99.90;;;;;;5064569;28;20043;-81
2022/04/21 02:27:41;;;;;;;16.25;9.88;;;6.60;99.90;;;;;;5065110;28;20281;-81
2022/04/21 02:30:08;;;;;;;17.88;10.10;;;6.70;99.90;;;;;;5056604;28;20128;-81
2022/04/21 02:32:35;;;;;;;17.42;9.52;;;6.60;99.90;;;;;;5067754;28;20151;-81
2022/04/21 02:35:01;;;;;;;16.60;9.52;;;6.50;99.90;;;;;;5073385;28;20255;-81
2022/04/21 02:37:27;;;;;;;16.98;9.43;;;6.50;99.90;;;;;;5064970;28;20043;-81
2022/04/21 02:39:52;;;;;;;16.92;9.68;;;6.90;99.90;;;;;;5067056;28;20040;-81
2022/04/21 02:42:21;;;;;;;15.82;9.15;;;6.50;99.90;;;;;;5059881;28;20036;-81
2022/04/21 02:44:48;;;;;;;15.77;8.63;;;6.40;99.90;;;;;;5076636;28;20032;-81
2022/04/21 02:47:14;;;;;;;17.45;9.32;;;6.40;99.90;;;;;;5061153;28;20045;-81
2022/04/21 02:49:45;;;;;;;17.38;9.75;;;6.90;99.90;;;;;;5075732;28;20040;-81
2022/04/21 02:52:12;;;;;;;15.80;9.38;;;6.30;99.90;;;;;;5056916;28;20043;-81
2022/04/21 02:57:23;;;;;;;16.15;9.77;;;6.60;99.90;;;;;;5072655;28;20055;-81
2022/04/21 02:59:50;;;;;;;15.85;9.18;;;6.30;99.90;;;;;;5063072;28;20083;-81
2022/04/21 03:02:17;;;;;;;18.00;9.07;;;6.20;99.90;;;;;;5060106;28;20036;-81
2022/04/21 03:04:43;;;;;;;14.50;8.65;;;6.70;99.90;;;;;;5076941;28;20272;-81
2022/04/21 03:07:09;;;;;;;16.67;9.00;;;6.20;99.90;;;;;;5060713;28;20062;-81
2022/04/21 03:09:35;;;;;;;15.32;8.85;;;6.90;99.90;;;;;;5038498;28;20473;-82
2022/04/21 03:12:04;;;;;;;16.63;8.70;;;6.90;99.90;;;;;;5067809;28;20059;-81
2022/04/21 03:14:30;;;;;;;14.32;7.82;;;6.20;99.90;;;;;;5061823;28;20043;-81
2022/04/21 03:16:57;;;;;;;17.95;8.68;;;6.20;99.90;;;;;;5058050;28;20492;-81
2022/04/21 03:19:23;;;;;;;12.98;7.50;;;6.20;99.90;;;;;;5061276;28;20044;-81
2022/04/21 03:24:34;;;;;;;15.20;7.90;;;6.20;99.90;;;;;;5056464;28;20068;-81
2022/04/21 03:27:00;;;;;;;13.80;7.70;;;6.90;99.90;;;;;;5078557;28;20408;-81
2022/04/21 03:29:26;;;;;;;15.88;8.10;;;6.60;99.90;;;;;;5064354;28;20039;-81
2022/04/21 03:31:51;;;;;;;15.38;7.60;;;6.10;99.90;;;;;;5060004;28;20051;-81
2022/04/21 03:34:19;;;;;;;13.68;7.50;;;6.10;99.90;;;;;;5043586;28;20050;-81
2022/04/21 03:39:12;;;;;;;13.88;7.22;;;6.00;99.90;;;;;;5076604;28;20044;-81
2022/04/21 03:41:38;;;;;;;14.73;7.55;;;6.00;99.90;;;;;;5072001;28;20145;-81
2022/04/21 03:44:04;;;;;;;13.02;7.47;;;6.00;99.90;;;;;;5041455;28;20036;-81
2022/04/21 03:46:31;;;;;;;14.55;7.70;;;6.00;99.90;;;;;;5060874;28;20040;-81
2022/04/21 03:48:57;;;;;;;13.05;7.40;;;5.90;99.90;;;;;;5076254;28;20503;-81
2022/04/21 03:51:24;;;;;;;15.23;7.03;;;5.90;99.90;;;;;;5059879;28;20047;-81
2022/04/21 03:53:50;;;;;;;13.82;7.40;;;6.90;99.90;;;;;;5075110;28;20044;-81
2022/04/21 03:56:16;;;;;;;15.05;7.82;;;5.90;99.90;;;;;;5042004;28;20594;-81
2022/04/21 03:58:41;;;;;;;13.35;7.07;;;6.20;99.90;;;;;;5057436;28;20135;-81
2022/04/21 04:01:07;;;;;;;14.13;7.18;;;5.80;99.90;;;;;;5056217;28;20114;-81
2022/04/21 04:03:33;;;;;;;12.95;7.50;;;5.80;99.90;;;;;;5046377;28;20050;-81
2022/04/21 04:05:59;;;;;;;13.95;7.90;;;6.60;99.90;;;;;;5041908;28;20110;-81
2022/04/21 04:11:10;;;;;;;12.45;7.20;;;5.80;99.90;;;;;;5072944;28;20051;-81
2022/04/21 04:13:36;;;;;;;14.13;7.47;;;5.70;99.90;;;;;;5036569;28;20372;-81
2022/04/21 04:16:01;;;;;;;14.70;7.43;;;6.20;99.90;;;;;;5057090;28;20043;-81
2022/04/21 04:18:29;;;;;;;14.20;7.65;;;5.70;99.90;;;;;;5051485;28;20039;-81
2022/04/21 04:20:55;;;;;;;14.13;7.50;;;5.70;99.90;;;;;;5047566;28;20393;-81
2022/04/21 04:23:22;;;;;;;13.10;6.95;;;5.60;99.90;;;;;;5042424;28;20362;-81
2022/04/21 04:25:48;;;;;;;13.27;7.28;;;5.60;99.90;;;;;;5059634;28;20035;-81
2022/04/21 04:28:14;;;;;;;14.15;7.78;;;5.60;99.90;;;;;;5057337;28;20036;-81
2022/04/21 04:30:42;;;;;;;13.43;7.35;;;5.80;99.90;;;;;;5056151;28;21178;-81
2022/04/21 04:33:08;;;;;;;15.13;7.88;;;5.50;99.90;;;;;;5058418;28;20043;-81
2022/04/21 04:35:34;;;;;;;14.15;7.45;;;5.70;99.90;;;;;;5054956;28;20041;-81
2022/04/21 04:38:00;;;;;;;12.95;7.03;;;5.50;99.90;;;;;;5061837;28;20044;-81
2022/04/21 04:40:26;;;;;;;13.05;7.15;;;5.50;99.90;;;;;;5059742;28;20035;-81
2022/04/21 04:42:56;;;;;;;15.30;7.68;;;5.50;99.90;;;;;;5062619;28;20067;-81
2022/04/21 04:48:06;;;;;;;14.30;7.90;;;5.50;99.90;;;;;;5071969;28;20044;-81
2022/04/21 04:50:32;;;;;;;12.75;7.70;;;5.50;99.90;;;;;;5063053;28;20032;-81
2022/04/21 04:52:59;;;;;;;13.32;7.65;;;5.50;99.90;;;;;;5045726;28;20051;-81
2022/04/21 04:55:26;;;;;;;14.50;7.57;;;5.50;99.90;;;;;;5056029;28;20036;-81
2022/04/21 04:57:51;;;;;;;14.93;7.72;;;5.50;99.90;;;;;;5057934;28;20033;-81
2022/04/21 05:00:18;;;;;;;13.55;7.30;;;5.50;99.90;;;;;;5052681;28;20045;-81
2022/04/21 05:02:47;;;;;;;13.55;7.43;;;5.60;99.90;;;;;;5078051;28;20699;-81
2022/04/21 05:05:13;;;;;;;15.27;7.90;;;5.60;99.90;;;;;;5058138;28;20120;-81
2022/04/21 05:07:39;;;;;;;14.38;7.90;;;5.70;99.90;;;;;;5057765;28;20118;-81
2022/04/21 05:10:07;;;;;;;14.02;8.25;;;5.90;99.90;;;;;;5077729;28;20052;-81
2022/04/21 05:12:32;;;;;;;15.73;8.82;;;5.80;99.90;;;;;;5042761;28;20213;-81
2022/04/21 05:14:58;;;;;;;15.07;8.45;;;6.30;99.90;;;;;;5059448;28;20119;-81
2022/04/21 05:17:25;;;;;;;16.08;8.50;;;6.30;99.90;;;;;;5062965;28;20040;-81
2022/04/21 05:19:52;;;;;;;15.77;8.60;;;6.10;99.90;;;;;;5038529;28;20036;-81
2022/04/21 05:22:18;;;;;;;15.75;8.52;;;6.20;99.90;;;;;;5060104;28;20068;-81
2022/04/21 05:24:51;;;;;;;16.30;9.18;;;6.30;99.90;;;;;;5074115;28;20044;-81
2022/04/21 05:27:17;;;;;;;15.80;7.95;;;6.40;99.90;;;;;;5058974;28;20565;-81
2022/04/21 05:32:28;;;;;;;15.07;8.15;;;6.60;99.90;;;;;;5080156;28;20044;-81
2022/04/21 05:34:54;;;;;;;14.95;7.88;;;6.70;99.90;;;;;;5085482;28;20043;-81
2022/04/21 05:37:20;;;;;;;16.30;7.90;;;6.80;99.90;;;;;;5073986;28;20162;-81
2022/04/21 05:39:47;;;;;;;14.10;8.38;;;6.90;99.90;;;;;;5074987;28;20499;-81
2022/04/21 05:42:22;;;;;;;14.20;7.65;;;7.00;99.90;;;;;;5057672;28;20453;-81
2022/04/21 05:44:53;;;;;;;14.65;7.82;;;7.20;99.90;;;;;;5091499;28;20404;-81
2022/04/21 05:47:20;;;;;;;13.68;7.68;;;7.30;99.90;;;;;;5089256;28;20512;-81
2022/04/21 05:49:46;;;;;;;13.68;8.02;;;7.50;99.90;;;;;;5077096;28;20262;-81
2022/04/21 05:52:13;;;;;;;12.90;7.30;;;7.60;99.90;;;;;;5057601;28;20258;-81
2022/04/21 05:54:40;;;;;;;12.45;7.32;;;7.80;99.90;;;;;;5074456;28;20094;-81
2022/04/21 05:57:06;;;;;;;14.10;7.20;;;7.90;99.90;;;;;;5072455;28;20040;-81
2022/04/21 05:59:32;;;;;;;12.50;6.20;;;8.10;99.90;;;;;;5063275;28;20504;-81
2022/04/21 06:01:59;;;;;;;13.65;6.85;;;8.30;99.90;;;;;;5087390;28;20048;-81
2022/04/21 06:04:25;;;;;;;14.13;6.50;;;8.40;99.90;;;;;;5054396;28;20045;-81
2022/04/21 06:06:51;;;;;;;11.38;6.10;;;8.60;99.90;;;;;;5057717;28;20029;-81
2022/04/21 06:09:17;;;;;;;11.80;6.10;;;8.70;99.90;;;;;;5075365;28;20036;-81
2022/04/21 06:11:43;;;;;;;12.07;5.60;;;8.90;99.90;;;;;;5084810;28;20044;-81
2022/04/21 06:14:09;;;;;;;10.88;5.53;;;9.00;99.90;;;;;;5051731;28;20045;-81
2022/04/21 06:16:35;;;;;;;14.02;6.03;;;9.10;99.90;;;;;;5050151;28;20093;-81
2022/04/21 06:19:00;;;;;;;11.13;5.45;;;9.20;99.90;;;;;;5048317;28;20044;-81
2022/04/21 06:21:26;;;;;;;12.13;5.60;;;9.40;99.90;;;;;;5085536;28;20442;-81
2022/04/21 06:23:52;;;;;;;12.80;5.50;;;9.50;99.90;;;;;;5090467;28;20055;-81
2022/04/21 06:26:18;;;;;;;12.38;5.25;;;9.60;99.90;;;;;;5053745;28;20043;-82
2022/04/21 06:28:43;;;;;;;10.27;5.22;;;9.70;99.90;;;;;;5079578;28;20064;-81
2022/04/21 06:31:10;;;;;;;11.65;5.10;;;10.00;99.90;;;;;;5081150;28;20119;-81
2022/04/21 06:33:36;;;;;;;9.52;4.90;;;9.90;99.90;;;;;;5070482;28;20078;-81
2022/04/21 06:36:06;;;;;;;11.57;4.70;;;10.10;99.90;;;;;;5053958;28;20068;-81
2022/04/21 06:38:32;;;;;;;10.38;4.82;;;10.20;99.90;;;;;;5073288;28;20386;-81
2022/04/21 06:40:57;;;;;;;10.02;4.75;;;10.30;99.90;;;;;;5082190;28;20036;-81
2022/04/21 06:48:51;;;;;;;10.52;4.63;;;10.70;99.90;;;;;;5080736;28;20052;-81
2022/04/21 06:51:18;;;;;;;9.55;4.22;;;10.80;99.90;;;;;;5052842;28;20044;-81
2022/04/21 06:53:44;;;;;;;10.43;4.22;;;10.90;99.90;;;;;;5089092;28;20044;-81
2022/04/21 06:56:11;;;;;;;9.25;3.83;;;11.00;99.90;;;;;;5053812;28;21012;-81
2022/04/21 06:58:36;;;;;;;9.38;4.10;;;11.10;99.90;;;;;;5069102;28;20197;-81
2022/04/21 07:01:03;;;;;;;10.02;4.32;;;11.20;99.90;;;;;;5089536;28;20206;-81
2022/04/21 07:03:29;;;;;;;9.20;3.80;;;11.30;99.90;;;;;;5064254;28;20044;-82
2022/04/21 07:05:55;;;;;;;9.43;3.45;;;11.50;99.90;;;;;;5072956;28;20036;-82
2022/04/21 07:08:22;;;;;;;8.55;3.60;;;11.50;99.90;;;;;;5071065;28;20124;-82
2022/04/21 07:10:48;;;;;;;9.40;3.55;;;11.60;99.90;;;;;;5055807;28;20046;-81
2022/04/21 07:13:13;;;;;;;9.02;3.50;;;11.70;99.90;;;;;;5050436;28;20123;-81
2022/04/21 07:15:43;;;;;;;9.15;3.00;;;11.80;99.90;;;;;;5089958;28;20044;-82
2022/04/21 07:18:11;;;;;;;8.27;2.97;;;11.90;99.90;;;;;;5081434;28;20044;-82
2022/04/21 07:20:37;;;;;;;8.75;3.13;;;12.00;99.90;;;;;;5078424;28;20032;-81
2022/04/21 07:23:03;;;;;;;8.50;2.92;;;12.20;99.90;;;;;;5086305;28;20411;-81
2022/04/21 07:25:29;;;;;;;10.55;2.97;;;12.20;99.90;;;;;;5038807;28;20111;-82
2022/04/21 07:27:55;;;;;;;8.63;2.90;;;12.30;99.90;;;;;;5042954;28;20036;-81
2022/04/21 07:30:21;;;;;;;7.28;2.70;;;12.40;99.90;;;;;;5052691;28;20046;-82
2022/04/21 07:32:47;;;;;;;8.00;2.60;;;12.50;99.90;;;;;;5066767;28;20040;-81
2022/04/21 07:35:13;;;;;;;7.55;2.83;;;12.50;99.90;;;;;;5056241;28;20044;-81
2022/04/21 07:37:39;;;;;;;6.85;2.50;;;12.50;99.90;;;;;;5065603;28;20046;-82
2022/04/21 07:40:05;;;;;;;8.00;2.70;;;12.50;99.90;;;;;;5067382;28;20085;-82
2022/04/21 07:42:32;;;;;;;8.15;2.50;;;13.00;99.90;;;;;;5058185;28;20072;-82
2022/04/21 07:44:59;;;;;;;6.90;2.63;;;12.60;99.90;;;;;;5060311;28;21357;-82
2022/04/21 07:47:24;;;;;;;8.40;3.00;;;12.60;99.90;;;;;;5045719;28;20040;-82
2022/04/21 07:49:50;;;;;;;7.32;2.70;;;12.70;99.90;;;;;;5046436;28;20500;-82
2022/04/21 07:55:21;;;;;;;6.43;2.60;;;12.80;99.90;;;;;;5079495;28;20040;-82
2022/04/21 07:57:47;;;;;;;9.00;2.83;;;13.00;99.90;;;;;;5072990;28;20225;-83
2022/04/21 08:00:15;;;;;;;6.50;2.50;;;13.10;99.90;;;;;;5077330;28;20072;-82
2022/04/21 08:02:42;;;;;;;7.45;3.00;;;13.10;99.90;;;;;;5074954;28;20051;-83
2022/04/21 08:05:10;;;;;;;10.18;2.97;;;13.20;99.90;;;;;;5083707;28;20146;-83
2022/04/21 08:07:37;;;;;;;8.38;2.58;;;13.20;99.90;;;;;;5067550;28;20036;-82
2022/04/21 08:10:04;;;;;;;8.43;2.70;;;13.30;99.90;;;;;;5066923;28;20086;-81
2022/04/21 08:12:49;;;;;;;7.55;2.83;;;13.30;99.90;;;;;;5068039;28;20093;-81
2022/04/21 08:15:22;;;;;;;7.85;2.72;;;13.30;99.90;;;;;;5102035;28;20089;-81
2022/04/21 08:17:48;;;;;;;6.63;2.60;;;13.40;99.90;;;;;;5074649;28;20516;-81
2022/04/21 08:20:13;;;;;;;7.32;2.50;;;14.30;99.90;;;;;;5069675;28;20109;-82
2022/04/21 08:22:40;;;;;;;8.52;2.92;;;13.40;99.90;;;;;;5080858;28;20506;-81
2022/04/21 08:33:20;;;;;;;7.88;2.83;;;13.60;99.90;;;;;;5061224;28;20048;-82
2022/04/21 08:35:48;;;;;;;9.95;2.90;;;13.60;99.90;;;;;;5055619;28;20047;-83
2022/04/21 08:38:14;;;;;;;8.90;3.05;;;13.70;99.90;;;;;;5045379;28;20044;-81
2022/04/21 08:40:53;;;;;;;8.52;2.90;;;13.70;99.90;;;;;;5061206;28;20033;-84
2022/04/21 08:43:19;;;;;;;9.00;3.05;;;13.80;99.90;;;;;;5063879;28;20043;-82
2022/04/21 08:45:47;;;;;;;7.38;3.13;;;13.90;99.90;;;;;;5056134;28;20036;-81
2022/04/21 08:48:13;;;;;;;8.48;3.17;;;13.90;99.90;;;;;;5063196;28;20043;-80
2022/04/21 08:50:40;;;;;;;10.38;2.83;;;13.90;99.90;;;;;;5060336;28;20515;-81
2022/04/21 08:53:07;;;;;;;9.48;3.08;;;14.00;99.90;;;;;;5059126;28;20040;-82
2022/04/21 08:55:33;;;;;;;7.82;2.85;;;14.10;99.90;;;;;;5061649;28;20036;-82
2022/04/21 08:58:00;;;;;;;7.13;3.00;;;14.10;99.90;;;;;;5077030;28;20098;-81
2022/04/21 09:00:26;;;;;;;8.30;2.92;;;14.20;99.90;;;;;;5058048;28;20052;-81
2022/04/21 09:02:53;;;;;;;9.15;3.00;;;14.30;99.90;;;;;;5068597;28;20043;-82
2022/04/21 09:05:20;;;;;;;8.57;3.30;;;14.80;99.90;;;;;;5063385;28;20046;-81
2022/04/21 09:07:57;;;;;;;7.32;3.05;;;14.50;99.90;;;;;;5062278;28;20032;-82
2022/04/21 09:10:24;;;;;;;8.90;3.10;;;14.60;99.90;;;;;;5089107;28;20052;-83
2022/04/21 09:12:55;;;;;;;7.93;3.15;;;14.70;99.90;;;;;;5056929;28;20428;-83
2022/04/21 09:15:26;;;;;;;9.57;3.10;;;14.70;99.90;;;;;;5083300;28;20133;-83
2022/04/21 09:17:56;;;;;;;8.75;3.05;;;14.80;99.90;;;;;;5081984;28;20082;-83
2022/04/21 09:20:24;;;;;;;7.45;2.85;;;14.70;99.90;;;;;;5068957;28;20036;-82
2022/04/21 09:22:55;;;;;;;9.73;3.35;;;14.70;99.90;;;;;;5080745;28;20432;-82
2022/04/21 09:25:25;;;;;;;7.70;3.30;;;14.70;99.90;;;;;;5061251;28;20036;-82
2022/04/21 09:27:52;;;;;;;8.48;3.33;;;14.70;99.90;;;;;;5084710;28;20493;-82
2022/04/21 09:30:18;;;;;;;7.50;2.97;;;14.70;99.90;;;;;;5064443;28;20047;-82
2022/04/21 09:32:58;;;;;;;8.55;3.25;;;14.80;99.90;;;;;;5067187;28;20046;-82
2022/04/21 09:35:28;;;;;;;7.82;3.50;;;14.80;99.90;;;;;;5065983;28;20047;-82
2022/04/21 09:38:00;;;;;;;8.05;2.90;;;14.90;99.90;;;;;;5065398;28;20056;-82
2022/04/21 09:40:28;;;;;;;8.05;3.20;;;15.00;99.90;;;;;;5057644;28;20032;-81
2022/04/21 09:43:02;;;;;;;8.98;3.60;;;15.00;99.90;;;;;;5077491;28;20055;-82
2022/04/21 09:46:12;;;;;;;8.38;3.13;;;15.10;99.90;;;;;;5064199;28;20033;-83
2022/04/21 09:48:28;;;;;;;9.15;3.30;;;15.10;99.90;;;;;;5072395;28;20119;-82
2022/04/21 09:50:56;;;;;;;9.20;3.28;;;15.20;99.90;;;;;;5081400;28;20106;-81
2022/04/21 09:53:23;;;;;;;9.15;3.10;;;15.30;99.90;;;;;;5088001;28;20134;-82
2022/04/21 09:56:07;;;;;;;8.70;3.17;;;15.40;99.90;;;;;;5053280;28;20047;-81
2022/04/21 09:58:38;;;;;;;8.70;3.20;;;15.50;99.90;;;;;;5044418;28;20136;-83
2022/04/21 10:01:04;;;;;;;8.88;2.80;;;15.50;99.90;;;;;;5062139;28;20105;-82
2022/04/21 10:03:34;;;;;;;9.80;3.47;;;15.50;99.90;;;;;;5049703;28;20036;-82
2022/04/21 10:06:04;;;;;;;7.95;3.10;;;15.50;99.90;;;;;;5047850;28;20459;-82
2022/04/21 10:08:30;;;;;;;8.40;2.83;;;15.60;99.90;;;;;;5042149;28;20046;-82
2022/04/21 10:10:56;;;;;;;8.30;2.90;;;15.70;99.90;;;;;;5031592;28;20032;-81
2022/04/21 10:13:23;;;;;;;8.85;3.28;;;15.70;99.90;;;;;;5065586;28;20055;-82
2022/04/21 10:15:51;;;;;;;8.20;2.90;;;15.70;99.90;;;;;;5064199;28;20543;-82
2022/04/21 10:18:18;;;;;;;9.30;3.50;;;15.70;99.90;;;;;;5050366;28;20093;-82
2022/04/21 10:20:45;;;;;;;8.68;3.20;;;15.70;99.90;;;;;;5031265;28;20048;-82
2022/04/21 10:23:16;;;;;;;8.57;2.83;;;15.80;99.90;;;;;;5061669;28;20040;-82
2022/04/21 10:25:43;;;;;;;7.75;3.00;;;15.90;99.90;;;;;;5050787;28;20040;-82
2022/04/21 10:28:39;;;;;;;8.20;2.92;;;15.90;99.90;;;;;;5063902;28;20044;-82
2022/04/21 10:31:33;;;;;;;7.95;3.10;;;16.00;99.90;;;;;;5065529;28;20114;-83
2022/04/21 10:34:06;;;;;;;8.10;3.10;;;16.10;99.90;;;;;;5061414;28;20424;-82
2022/04/21 10:36:47;;;;;;;7.38;2.80;;;16.20;99.90;;;;;;5069305;28;20455;-82
2022/04/21 10:39:18;;;;;;;7.68;2.80;;;16.30;99.90;;;;;;5054809;28;20324;-81
2022/04/21 10:41:45;;;;;;;6.78;2.70;;;16.30;99.90;;;;;;5069105;28;20032;-81
2022/04/21 10:44:15;;;;;;;9.63;3.03;;;16.20;99.90;;;;;;5042047;28;20039;-81
2022/04/21 10:46:42;;;;;;;9.95;2.78;;;16.20;99.90;;;;;;5060270;28;20162;-83
2022/04/21 10:49:09;;;;;;;7.75;2.70;;;16.30;99.90;;;;;;5077085;28;20040;-82
2022/04/21 10:57:17;;;;;;;8.32;2.38;;;16.50;99.70;;;;;;5074174;28;20056;-82
2022/04/21 11:00:04;;;;;;;7.78;2.42;;;16.60;98.40;;;;;;5039406;28;20094;-82
2022/04/21 11:02:40;;;;;;;6.72;2.33;;;16.50;96.60;;;;;;5068488;28;20043;-83
2022/04/21 11:05:28;;;;;;;7.72;2.65;;;16.60;95.60;;;;;;5042454;28;20039;-82
2022/04/21 11:07:56;;;;;;;7.30;2.70;;;16.70;94.90;;;;;;5056381;28;20036;-83
2022/04/21 11:10:41;;;;;;;9.18;2.83;;;16.70;97.20;;;;;;5059859;28;20031;-82
2022/04/21 11:13:09;;;;;;;6.70;2.40;;;16.70;96.60;;;;;;5065988;28;20037;-82
2022/04/21 11:15:53;;;;;;;8.40;2.58;;;16.80;95.60;;;;;;5073400;28;20119;-82
2022/04/21 11:18:20;;;;;;;6.90;2.47;;;16.70;93.70;;;;;;5080368;28;20051;-82
2022/04/21 11:20:51;;;;;;;7.72;2.30;;;16.60;92.50;;;;;;5048039;28;20044;-83
2022/04/21 11:23:31;;;;;;;7.20;2.60;;;16.80;94.80;;;;;;5064259;28;20074;-82
2022/04/21 11:26:08;;;;;;;6.80;2.80;;;16.80;92.30;;;;;;5083348;28;20055;-83
2022/04/21 11:28:34;;;;;;;7.18;2.67;;;16.90;92.30;;;;;;5068916;28;20079;-82
2022/04/21 11:31:02;;;;;;;7.68;2.50;;;16.80;92.70;;;;;;5054517;28;20115;-82
2022/04/21 11:33:28;;;;;;;9.80;2.60;;;16.90;92.70;;;;;;5040817;28;20043;-83
2022/04/21 11:36:08;;;;;;;7.97;2.60;;;16.90;92.90;;;;;;5046721;28;20040;-82
2022/04/21 11:38:55;;;;;;;7.72;2.75;;;16.90;91.50;;;;;;5060563;28;20043;-83
2022/04/21 11:41:20;;;;;;;8.00;2.65;;;16.90;90.50;;;;;;5059053;28;20400;-82
2022/04/21 11:43:47;;;;;;;7.38;2.63;;;16.90;91.60;;;;;;5055775;28;20044;-82
2022/04/21 11:46:13;;;;;;;7.38;2.92;;;16.90;91.50;;;;;;5074522;28;20043;-82
2022/04/21 11:48:41;;;;;;;7.07;2.67;;;17.10;92.20;;;;;;5031822;28;20040;-81
2022/04/21 11:51:08;;;;;;;10.13;3.00;;;17.00;90.60;;;;;;5039467;28;20044;-82
2022/04/21 11:53:41;;;;;;;10.18;2.63;;;16.90;90.90;;;;;;5049161;28;20055;-82
2022/04/21 11:56:11;;;;;;;8.07;2.80;;;16.90;90.30;;;;;;5027774;28;20559;-82
2022/04/21 11:58:38;;;;;;;6.72;2.63;;;16.90;90.00;;;;;;5065134;28;20115;-82
2022/04/21 12:06:51;;;;;;;9.45;2.90;;;17.20;91.60;;;;;;5080638;28;20152;-82
2022/04/21 12:09:20;;;;;;;10.15;3.00;;;17.40;90.70;;;;;;5055835;28;20044;-83
2022/04/21 12:11:54;;;;;;;7.22;2.75;;;17.30;90.50;;;;;;5057050;28;20044;-82
2022/04/21 12:14:20;;;;;;;7.22;2.97;;;17.50;91.30;;;;;;5075534;28;20032;-82
2022/04/21 12:16:55;;;;;;;7.45;2.92;;;17.40;92.00;;;;;;5056053;28;20251;-83
2022/04/21 12:19:38;;;;;;;9.52;3.08;;;17.60;92.40;;;;;;5072569;28;20090;-82
2022/04/21 12:22:16;;;;;;;7.30;2.92;;;17.50;90.80;;;;;;5061346;28;20487;-82
2022/04/21 12:24:47;;;;;;;7.50;2.88;;;17.50;86.10;;;;;;5055913;28;20032;-84
2022/04/21 12:27:17;;;;;;;7.95;3.30;;;17.40;89.20;;;;;;5063068;28;20039;-83
2022/04/21 12:30:11;;;;;;;7.85;3.00;;;17.50;90.40;;;;;;5054038;28;20028;-84
2022/04/21 12:32:39;;;;;;;8.02;2.92;;;17.50;88.90;;;;;;5062153;28;20033;-83
2022/04/21 12:35:12;;;;;;;8.95;3.20;;;17.60;90.10;;;;;;5066825;28;20139;-85
2022/04/21 12:37:40;;;;;;;9.10;2.90;;;17.70;87.90;;;;;;5065291;28;20032;-83
2022/04/21 12:40:11;;;;;;;7.30;2.97;;;17.70;87.70;;;;;;5062374;28;20119;-83
2022/04/21 12:42:39;;;;;;;8.55;3.05;;;17.80;87.60;;;;;;5058187;28;20033;-83
2022/04/21 12:45:06;;;;;;;9.35;3.03;;;17.80;88.80;;;;;;5058101;28;20496;-83
2022/04/21 12:47:50;;;;;;;7.53;3.00;;;17.70;87.90;;;;;;5050113;28;20060;-84
2022/04/21 12:50:23;;;;;;;7.35;3.10;;;17.80;87.30;;;;;;5065339;28;20650;-84
2022/04/21 12:52:56;;;;;;;7.47;3.03;;;17.80;87.70;;;;;;5040918;28;20036;-84
2022/04/21 12:55:24;;;;;;;7.80;2.88;;;17.90;85.90;;;;;;5079679;28;20401;-84
2022/04/21 12:58:05;;;;;;;7.82;2.95;;;17.80;85.40;;;;;;5078874;28;20074;-83
2022/04/21 13:00:32;;;;;;;7.72;3.10;;;17.70;83.20;;;;;;5082208;28;20599;-83
2022/04/21 13:02:58;;;;;;;7.72;2.97;;;17.70;84.00;;;;;;5061983;28;20083;-84
2022/04/21 13:05:23;;;;;;;7.15;2.92;;;17.60;83.40;;;;;;5079701;28;20488;-83
2022/04/21 13:07:49;;;;;;;10.65;3.05;;;17.70;84.10;;;;;;5059263;28;20422;-84
2022/04/21 13:10:16;;;;;;;8.77;3.28;;;17.80;83.80;;;;;;5065245;28;20157;-84
2022/04/21 13:12:42;;;;;;;8.68;3.92;;;17.70;81.90;;;;;;5050859;28;20071;-84
2022/04/21 13:15:09;;;;;;;7.90;3.60;;;17.60;82.50;;;;;;5053139;28;20044;-85
2022/04/21 13:17:34;;;;;;;10.15;3.05;;;17.50;83.40;;;;;;5067238;28;20060;-84
2022/04/21 13:20:00;;;;;;;7.13;2.72;;;17.60;83.70;;;;;;5033294;28;20531;-84
2022/04/21 13:22:26;;;;;;;8.43;3.50;;;17.50;82.40;;;;;;5056551;28;20480;-83
2022/04/21 13:24:52;;;;;;;9.38;3.63;;;17.60;83.00;;;;;;5066867;28;20036;-83
2022/04/21 13:27:21;;;;;;;8.80;3.45;;;17.60;83.10;;;;;;5050092;28;20393;-84
2022/04/21 13:29:47;;;;;;;7.88;2.97;;;17.60;82.70;;;;;;5062498;28;20489;-82
2022/04/21 13:34:57;;;;;;;8.32;3.95;;;17.70;83.90;;;;;;5062947;28;20045;-83
2022/04/21 13:37:23;;;;;;;8.48;3.20;;;17.80;83.60;;;;;;5073046;28;20040;-84
2022/04/21 13:39:48;;;;;;;8.68;3.42;;;17.80;82.50;;;;;;5052146;28;20396;-84
2022/04/21 13:42:14;;;;;;;9.38;3.67;;;17.90;83.10;;;;;;5056560;28;20100;-83
2022/04/21 13:44:40;;;;;;;7.75;3.92;;;17.90;83.30;;;;;;5057670;28;20036;-83